sensor_id;sensor_type;location;lat;lon;timestamp;temperature;humidity
14682;DHT22;7429;52.498;13.480;2023-07-29T00:01:49;18.80;99.90
14682;DHT22;7429;52.498;13.480;2023-07-29T00:04:53;18.80;99.90
14682;DHT22;7429;52.498;13.480;2023-07-29T00:07:57;18.80;99.90
14682;DHT22;7429;52.498;13.480;2023-07-29T00:11:00;18.80;99.90
14682;DHT22;7429;52.498;13.480;2023-07-29T00:14:04;18.80;99.90
14682;DHT22;7429;52.498;13.480;2023-07-29T00:17:07;18.70;99.90
14682;DHT22;7429;52.498;13.480;2023-07-29T00:20:10;18.70;99.90
14682;DHT22;7429;52.498;13.480;2023-07-29T00:23:14;18.60;99.90
14682;DHT22;7429;52.498;13.480;2023-07-29T00:26:17;18.60;99.90
14682;DHT22;7429;52.498;13.480;2023-07-29T00:29:20;18.60;99.90
14682;DHT22;7429;52.498;13.480;2023-07-29T00:32:29;18.60;99.90
14682;DHT22;7429;52.498;13.480;2023-07-29T00:35:32;18.50;99.90
14682;DHT22;7429;52.498;13.480;2023-07-29T00:38:36;18.50;99.90
14682;DHT22;7429;52.498;13.480;2023-07-29T00:41:40;18.40;99.90
14682;DHT22;7429;52.498;13.480;2023-07-29T00:44:43;18.40;99.90
14682;DHT22;7429;52.498;13.480;2023-07-29T00:47:46;18.40;99.90
14682;DHT22;7429;52.498;13.480;2023-07-29T00:50:51;18.40;99.90
14682;DHT22;7429;52.498;13.480;2023-07-29T00:53:56;18.40;99.90
14682;DHT22;7429;52.498;13.480;2023-07-29T00:56:59;18.40;99.90
14682;DHT22;7429;52.498;13.480;2023-07-29T01:00:03;18.30;99.90
14682;DHT22;7429;52.498;13.480;2023-07-29T01:03:08;18.30;99.90
14682;DHT22;7429;52.498;13.480;2023-07-29T01:06:15;18.30;99.90
14682;DHT22;7429;52.498;13.480;2023-07-29T01:09:31;18.20;99.90
14682;DHT22;7429;52.498;13.480;2023-07-29T01:12:44;18.10;99.90
14682;DHT22;7429;52.498;13.480;2023-07-29T01:15:55;18.20;99.90
14682;DHT22;7429;52.498;13.480;2023-07-29T01:19:05;18.10;99.90
14682;DHT22;7429;52.498;13.480;2023-07-29T01:22:11;18.10;99.90
14682;DHT22;7429;52.498;13.480;2023-07-29T01:25:15;18.00;99.90
14682;DHT22;7429;52.498;13.480;2023-07-29T01:28:18;18.00;99.90
14682;DHT22;7429;52.498;13.480;2023-07-29T01:31:27;18.00;99.90
14682;DHT22;7429;52.498;13.480;2023-07-29T01:34:41;18.00;99.90
14682;DHT22;7429;52.498;13.480;2023-07-29T01:37:49;18.00;99.90
14682;DHT22;7429;52.498;13.480;2023-07-29T01:40:56;18.00;99.90
14682;DHT22;7429;52.498;13.480;2023-07-29T01:43:59;18.00;99.90
14682;DHT22;7429;52.498;13.480;2023-07-29T01:47:05;17.90;99.90
14682;DHT22;7429;52.498;13.480;2023-07-29T01:50:10;17.90;99.90
14682;DHT22;7429;52.498;13.480;2023-07-29T01:53:13;17.80;99.90
14682;DHT22;7429;52.498;13.480;2023-07-29T01:56:17;17.80;99.90
14682;DHT22;7429;52.498;13.480;2023-07-29T01:59:27;17.80;99.90
14682;DHT22;7429;52.498;13.480;2023-07-29T02:02:31;17.80;99.90
14682;DHT22;7429;52.498;13.480;2023-07-29T02:05:34;17.80;99.90
14682;DHT22;7429;52.498;13.480;2023-07-29T02:08:38;17.70;99.90
14682;DHT22;7429;52.498;13.480;2023-07-29T02:11:44;17.70;99.90
14682;DHT22;7429;52.498;13.480;2023-07-29T02:14:47;17.70;99.90
14682;DHT22;7429;52.498;13.480;2023-07-29T02:17:50;17.70;99.90
14682;DHT22;7429;52.498;13.480;2023-07-29T02:20:54;17.70;99.90
14682;DHT22;7429;52.498;13.480;2023-07-29T02:23:57;17.60;99.90
14682;DHT22;7429;52.498;13.480;2023-07-29T02:27:01;17.60;99.90
14682;DHT22;7429;52.498;13.480;2023-07-29T02:30:06;17.50;99.90
14682;DHT22;7429;52.498;13.480;2023-07-29T02:33:11;17.50;99.90
14682;DHT22;7429;52.498;13.480;2023-07-29T02:36:15;17.50;99.90
14682;DHT22;7429;52.498;13.480;2023-07-29T02:39:18;17.50;99.90
14682;DHT22;7429;52.498;13.480;2023-07-29T02:42:23;17.40;99.90
14682;DHT22;7429;52.498;13.480;2023-07-29T02:45:26;17.40;99.90
14682;DHT22;7429;52.498;13.480;2023-07-29T02:48:29;17.40;99.90
14682;DHT22;7429;52.498;13.480;2023-07-29T02:51:33;17.40;99.90
14682;DHT22;7429;52.498;13.480;2023-07-29T02:54:36;17.40;99.90
14682;DHT22;7429;52.498;13.480;2023-07-29T02:57:41;17.40;99.90
14682;DHT22;7429;52.498;13.480;2023-07-29T03:00:44;17.30;99.90
14682;DHT22;7429;52.498;13.480;2023-07-29T03:03:49;17.40;99.90
14682;DHT22;7429;52.498;13.480;2023-07-29T03:06:52;17.40;99.90
14682;DHT22;7429;52.498;13.480;2023-07-29T03:09:59;17.40;99.90
14682;DHT22;7429;52.498;13.480;2023-07-29T03:13:03;17.40;99.90
14682;DHT22;7429;52.498;13.480;2023-07-29T03:16:09;17.30;99.90
14682;DHT22;7429;52.498;13.480;2023-07-29T03:19:15;17.30;99.90
14682;DHT22;7429;52.498;13.480;2023-07-29T03:22:18;17.30;99.90
14682;DHT22;7429;52.498;13.480;2023-07-29T03:25:21;17.40;99.90
14682;DHT22;7429;52.498;13.480;2023-07-29T03:28:28;17.30;99.90
14682;DHT22;7429;52.498;13.480;2023-07-29T03:31:32;17.20;99.90
14682;DHT22;7429;52.498;13.480;2023-07-29T03:34:35;17.30;99.90
14682;DHT22;7429;52.498;13.480;2023-07-29T03:37:38;17.30;99.90
14682;DHT22;7429;52.498;13.480;2023-07-29T03:40:42;17.30;99.90
14682;DHT22;7429;52.498;13.480;2023-07-29T03:43:47;17.30;99.90
14682;DHT22;7429;52.498;13.480;2023-07-29T03:46:50;17.30;99.90
14682;DHT22;7429;52.498;13.480;2023-07-29T03:49:53;17.30;99.90
14682;DHT22;7429;52.498;13.480;2023-07-29T03:52:57;17.30;99.90
14682;DHT22;7429;52.498;13.480;2023-07-29T03:56:00;17.30;99.90
14682;DHT22;7429;52.498;13.480;2023-07-29T03:59:05;17.30;99.90
14682;DHT22;7429;52.498;13.480;2023-07-29T04:02:08;17.40;99.90
14682;DHT22;7429;52.498;13.480;2023-07-29T04:05:12;17.40;99.90
14682;DHT22;7429;52.498;13.480;2023-07-29T04:08:15;17.40;99.90
14682;DHT22;7429;52.498;13.480;2023-07-29T04:11:18;17.40;99.90
14682;DHT22;7429;52.498;13.480;2023-07-29T04:14:23;17.40;99.90
14682;DHT22;7429;52.498;13.480;2023-07-29T04:17:26;17.40;99.90
14682;DHT22;7429;52.498;13.480;2023-07-29T04:20:29;17.50;99.90
14682;DHT22;7429;52.498;13.480;2023-07-29T04:23:32;17.50;99.90
14682;DHT22;7429;52.498;13.480;2023-07-29T04:26:36;17.60;99.90
14682;DHT22;7429;52.498;13.480;2023-07-29T04:29:42;17.70;99.90
14682;DHT22;7429;52.498;13.480;2023-07-29T04:32:45;17.60;99.90
14682;DHT22;7429;52.498;13.480;2023-07-29T04:35:50;17.70;99.90
14682;DHT22;7429;52.498;13.480;2023-07-29T04:38:54;17.80;99.90
14682;DHT22;7429;52.498;13.480;2023-07-29T04:41:57;17.90;99.90
14682;DHT22;7429;52.498;13.480;2023-07-29T04:45:02;18.00;99.90
14682;DHT22;7429;52.498;13.480;2023-07-29T04:48:07;18.00;99.90
14682;DHT22;7429;52.498;13.480;2023-07-29T04:51:10;18.10;99.90
14682;DHT22;7429;52.498;13.480;2023-07-29T04:54:15;18.10;99.90
14682;DHT22;7429;52.498;13.480;2023-07-29T04:57:18;18.10;99.90
14682;DHT22;7429;52.498;13.480;2023-07-29T05:00:22;18.20;99.90
14682;DHT22;7429;52.498;13.480;2023-07-29T05:03:25;18.20;99.90
14682;DHT22;7429;52.498;13.480;2023-07-29T05:06:28;18.30;99.90
14682;DHT22;7429;52.498;13.480;2023-07-29T05:09:32;18.30;99.90
14682;DHT22;7429;52.498;13.480;2023-07-29T05:12:35;18.40;99.90
14682;DHT22;7429;52.498;13.480;2023-07-29T05:15:40;18.40;99.90
14682;DHT22;7429;52.498;13.480;2023-07-29T05:18:43;18.40;99.90
14682;DHT22;7429;52.498;13.480;2023-07-29T05:21:47;18.50;99.90
14682;DHT22;7429;52.498;13.480;2023-07-29T05:24:50;18.50;99.90
14682;DHT22;7429;52.498;13.480;2023-07-29T05:27:53;18.50;99.90
14682;DHT22;7429;52.498;13.480;2023-07-29T05:31:00;18.60;99.90
14682;DHT22;7429;52.498;13.480;2023-07-29T05:34:03;18.70;99.90
14682;DHT22;7429;52.498;13.480;2023-07-29T05:37:07;18.80;99.90
14682;DHT22;7429;52.498;13.480;2023-07-29T05:40:10;18.80;99.90
14682;DHT22;7429;52.498;13.480;2023-07-29T05:43:14;18.90;99.90
14682;DHT22;7429;52.498;13.480;2023-07-29T05:46:18;19.00;99.90
14682;DHT22;7429;52.498;13.480;2023-07-29T05:49:22;19.00;99.90
14682;DHT22;7429;52.498;13.480;2023-07-29T05:52:25;19.10;99.90
14682;DHT22;7429;52.498;13.480;2023-07-29T05:55:28;19.10;99.90
14682;DHT22;7429;52.498;13.480;2023-07-29T05:58:31;19.20;99.90
14682;DHT22;7429;52.498;13.480;2023-07-29T06:01:35;19.30;99.90
14682;DHT22;7429;52.498;13.480;2023-07-29T06:04:39;19.30;99.90
14682;DHT22;7429;52.498;13.480;2023-07-29T06:07:44;19.30;99.90
14682;DHT22;7429;52.498;13.480;2023-07-29T06:10:47;19.40;99.90
14682;DHT22;7429;52.498;13.480;2023-07-29T06:13:50;19.50;99.90
14682;DHT22;7429;52.498;13.480;2023-07-29T06:16:55;19.60;99.90
14682;DHT22;7429;52.498;13.480;2023-07-29T06:19:59;19.60;99.90
14682;DHT22;7429;52.498;13.480;2023-07-29T06:23:03;19.80;99.90
14682;DHT22;7429;52.498;13.480;2023-07-29T06:26:06;19.80;99.90
14682;DHT22;7429;52.498;13.480;2023-07-29T06:29:09;19.90;99.90
14682;DHT22;7429;52.498;13.480;2023-07-29T06:32:14;20.00;99.90
14682;DHT22;7429;52.498;13.480;2023-07-29T06:35:17;20.00;99.90
14682;DHT22;7429;52.498;13.480;2023-07-29T06:38:20;20.10;99.90
14682;DHT22;7429;52.498;13.480;2023-07-29T06:41:23;20.30;99.90
14682;DHT22;7429;52.498;13.480;2023-07-29T06:44:26;20.30;99.90
14682;DHT22;7429;52.498;13.480;2023-07-29T06:47:31;20.40;99.90
14682;DHT22;7429;52.498;13.480;2023-07-29T06:50:34;20.50;99.90
14682;DHT22;7429;52.498;13.480;2023-07-29T06:53:39;20.50;99.90
14682;DHT22;7429;52.498;13.480;2023-07-29T06:56:43;20.60;99.90
14682;DHT22;7429;52.498;13.480;2023-07-29T06:59:46;20.70;99.90
14682;DHT22;7429;52.498;13.480;2023-07-29T07:02:50;20.80;99.90
14682;DHT22;7429;52.498;13.480;2023-07-29T07:05:53;20.90;99.90
14682;DHT22;7429;52.498;13.480;2023-07-29T07:08:56;21.00;99.90
14682;DHT22;7429;52.498;13.480;2023-07-29T07:11:59;21.00;99.90
14682;DHT22;7429;52.498;13.480;2023-07-29T07:15:03;21.10;99.90
14682;DHT22;7429;52.498;13.480;2023-07-29T07:18:08;21.20;99.90
14682;DHT22;7429;52.498;13.480;2023-07-29T07:21:11;21.30;99.90
14682;DHT22;7429;52.498;13.480;2023-07-29T07:24:15;21.30;99.90
14682;DHT22;7429;52.498;13.480;2023-07-29T07:27:18;21.30;99.90
14682;DHT22;7429;52.498;13.480;2023-07-29T07:30:21;21.40;99.90
14682;DHT22;7429;52.498;13.480;2023-07-29T07:33:25;21.40;99.90
14682;DHT22;7429;52.498;13.480;2023-07-29T07:36:29;21.50;99.90
14682;DHT22;7429;52.498;13.480;2023-07-29T07:39:32;21.60;99.90
14682;DHT22;7429;52.498;13.480;2023-07-29T07:42:35;21.70;99.90
14682;DHT22;7429;52.498;13.480;2023-07-29T07:45:39;21.80;99.90
14682;DHT22;7429;52.498;13.480;2023-07-29T07:48:44;22.00;99.90
14682;DHT22;7429;52.498;13.480;2023-07-29T07:51:47;21.90;99.90
14682;DHT22;7429;52.498;13.480;2023-07-29T07:54:51;22.00;99.90
14682;DHT22;7429;52.498;13.480;2023-07-29T07:57:55;22.10;99.90
14682;DHT22;7429;52.498;13.480;2023-07-29T08:01:01;22.30;99.90
14682;DHT22;7429;52.498;13.480;2023-07-29T08:04:06;22.40;99.90
14682;DHT22;7429;52.498;13.480;2023-07-29T08:07:09;22.40;99.90
14682;DHT22;7429;52.498;13.480;2023-07-29T08:10:12;22.50;99.90
14682;DHT22;7429;52.498;13.480;2023-07-29T08:13:16;22.60;99.90
14682;DHT22;7429;52.498;13.480;2023-07-29T08:16:19;22.60;99.90
14682;DHT22;7429;52.498;13.480;2023-07-29T08:19:23;22.60;99.90
14682;DHT22;7429;52.498;13.480;2023-07-29T08:22:29;22.60;99.90
14682;DHT22;7429;52.498;13.480;2023-07-29T08:25:32;22.70;99.90
14682;DHT22;7429;52.498;13.480;2023-07-29T08:28:38;22.70;99.90
14682;DHT22;7429;52.498;13.480;2023-07-29T08:31:41;22.70;99.90
14682;DHT22;7429;52.498;13.480;2023-07-29T08:34:46;22.80;99.90
14682;DHT22;7429;52.498;13.480;2023-07-29T08:37:49;22.90;99.90
14682;DHT22;7429;52.498;13.480;2023-07-29T08:40:57;23.00;99.90
14682;DHT22;7429;52.498;13.480;2023-07-29T08:44:06;23.00;99.90
14682;DHT22;7429;52.498;13.480;2023-07-29T08:47:14;23.00;99.90
14682;DHT22;7429;52.498;13.480;2023-07-29T08:50:23;23.10;99.90
14682;DHT22;7429;52.498;13.480;2023-07-29T08:53:27;23.20;99.90
14682;DHT22;7429;52.498;13.480;2023-07-29T08:56:34;23.20;99.90
14682;DHT22;7429;52.498;13.480;2023-07-29T08:59:40;23.20;99.90
14682;DHT22;7429;52.498;13.480;2023-07-29T09:02:44;23.20;99.90
14682;DHT22;7429;52.498;13.480;2023-07-29T09:05:49;23.30;99.90
14682;DHT22;7429;52.498;13.480;2023-07-29T09:08:55;23.30;99.90
14682;DHT22;7429;52.498;13.480;2023-07-29T09:11:58;23.40;99.90
14682;DHT22;7429;52.498;13.480;2023-07-29T09:15:02;23.50;99.90
14682;DHT22;7429;52.498;13.480;2023-07-29T09:18:09;23.60;99.90
14682;DHT22;7429;52.498;13.480;2023-07-29T09:21:15;23.70;99.90
14682;DHT22;7429;52.498;13.480;2023-07-29T09:24:21;23.80;99.90
14682;DHT22;7429;52.498;13.480;2023-07-29T09:27:24;24.00;99.90
14682;DHT22;7429;52.498;13.480;2023-07-29T09:30:28;24.10;99.90
14682;DHT22;7429;52.498;13.480;2023-07-29T09:33:33;24.10;99.90
14682;DHT22;7429;52.498;13.480;2023-07-29T09:36:40;24.10;99.90
14682;DHT22;7429;52.498;13.480;2023-07-29T09:39:45;24.10;99.90
14682;DHT22;7429;52.498;13.480;2023-07-29T09:42:49;24.20;99.90
14682;DHT22;7429;52.498;13.480;2023-07-29T09:45:53;24.20;99.90
14682;DHT22;7429;52.498;13.480;2023-07-29T09:48:56;24.30;99.90
14682;DHT22;7429;52.498;13.480;2023-07-29T09:52:04;24.30;99.90
14682;DHT22;7429;52.498;13.480;2023-07-29T09:55:09;24.40;99.90
14682;DHT22;7429;52.498;13.480;2023-07-29T09:58:13;24.30;99.90
14682;DHT22;7429;52.498;13.480;2023-07-29T10:01:16;24.30;99.90
14682;DHT22;7429;52.498;13.480;2023-07-29T10:04:22;24.40;99.90
14682;DHT22;7429;52.498;13.480;2023-07-29T10:07:27;24.40;99.90
14682;DHT22;7429;52.498;13.480;2023-07-29T10:10:31;24.40;99.90
14682;DHT22;7429;52.498;13.480;2023-07-29T10:13:38;24.50;99.90
14682;DHT22;7429;52.498;13.480;2023-07-29T10:16:42;24.60;99.90
14682;DHT22;7429;52.498;13.480;2023-07-29T10:19:47;24.60;99.90
14682;DHT22;7429;52.498;13.480;2023-07-29T10:22:56;24.60;99.90
14682;DHT22;7429;52.498;13.480;2023-07-29T10:26:03;24.70;99.90
14682;DHT22;7429;52.498;13.480;2023-07-29T10:29:07;24.80;99.90
14682;DHT22;7429;52.498;13.480;2023-07-29T10:32:15;24.70;99.90
14682;DHT22;7429;52.498;13.480;2023-07-29T10:35:19;24.80;99.90
14682;DHT22;7429;52.498;13.480;2023-07-29T10:38:24;24.80;99.90
14682;DHT22;7429;52.498;13.480;2023-07-29T10:41:55;24.80;99.90
14682;DHT22;7429;52.498;13.480;2023-07-29T10:44:58;24.80;99.90
14682;DHT22;7429;52.498;13.480;2023-07-29T10:48:05;24.80;99.90
14682;DHT22;7429;52.498;13.480;2023-07-29T10:51:23;24.90;99.90
14682;DHT22;7429;52.498;13.480;2023-07-29T10:54:42;24.90;99.90
14682;DHT22;7429;52.498;13.480;2023-07-29T10:57:45;24.80;99.90
14682;DHT22;7429;52.498;13.480;2023-07-29T11:00:49;24.70;99.90
14682;DHT22;7429;52.498;13.480;2023-07-29T11:07:26;24.70;99.90
14682;DHT22;7429;52.498;13.480;2023-07-29T11:10:42;24.60;99.90
14682;DHT22;7429;52.498;13.480;2023-07-29T11:13:46;24.50;99.90
14682;DHT22;7429;52.498;13.480;2023-07-29T11:16:49;24.50;99.90
14682;DHT22;7429;52.498;13.480;2023-07-29T11:19:54;24.40;99.90
14682;DHT22;7429;52.498;13.480;2023-07-29T11:23:00;24.40;99.90
14682;DHT22;7429;52.498;13.480;2023-07-29T11:26:07;24.30;99.90
14682;DHT22;7429;52.498;13.480;2023-07-29T11:29:10;23.80;99.90
14682;DHT22;7429;52.498;13.480;2023-07-29T11:32:13;22.40;99.90
14682;DHT22;7429;52.498;13.480;2023-07-29T11:35:23;21.70;99.90
14682;DHT22;7429;52.498;13.480;2023-07-29T11:38:27;21.40;99.90
14682;DHT22;7429;52.498;13.480;2023-07-29T11:41:34;21.10;99.90
14682;DHT22;7429;52.498;13.480;2023-07-29T11:44:38;20.90;99.90
14682;DHT22;7429;52.498;13.480;2023-07-29T11:47:41;20.90;99.90
14682;DHT22;7429;52.498;13.480;2023-07-29T11:50:45;21.00;99.90
14682;DHT22;7429;52.498;13.480;2023-07-29T11:53:49;21.10;99.90
14682;DHT22;7429;52.498;13.480;2023-07-29T11:56:53;21.10;99.90
14682;DHT22;7429;52.498;13.480;2023-07-29T11:59:59;21.10;99.90
14682;DHT22;7429;52.498;13.480;2023-07-29T12:03:12;21.20;99.90
14682;DHT22;7429;52.498;13.480;2023-07-29T12:06:17;21.20;99.90
14682;DHT22;7429;52.498;13.480;2023-07-29T12:09:26;21.20;99.90
14682;DHT22;7429;52.498;13.480;2023-07-29T12:12:38;21.30;99.90
14682;DHT22;7429;52.498;13.480;2023-07-29T12:15:46;21.40;99.90
14682;DHT22;7429;52.498;13.480;2023-07-29T12:18:50;21.40;99.90
14682;DHT22;7429;52.498;13.480;2023-07-29T12:21:53;21.50;99.90
14682;DHT22;7429;52.498;13.480;2023-07-29T12:24:56;21.50;99.90
14682;DHT22;7429;52.498;13.480;2023-07-29T12:28:06;21.40;99.90
14682;DHT22;7429;52.498;13.480;2023-07-29T12:31:13;21.40;99.90
14682;DHT22;7429;52.498;13.480;2023-07-29T12:34:21;21.40;99.90
14682;DHT22;7429;52.498;13.480;2023-07-29T12:37:31;21.40;99.90
14682;DHT22;7429;52.498;13.480;2023-07-29T12:40:38;21.50;99.90
14682;DHT22;7429;52.498;13.480;2023-07-29T12:43:47;21.50;99.90
14682;DHT22;7429;52.498;13.480;2023-07-29T12:46:50;21.50;99.90
14682;DHT22;7429;52.498;13.480;2023-07-29T12:49:53;21.50;99.90
14682;DHT22;7429;52.498;13.480;2023-07-29T12:52:56;21.60;99.90
14682;DHT22;7429;52.498;13.480;2023-07-29T12:56:02;21.90;99.90
14682;DHT22;7429;52.498;13.480;2023-07-29T12:59:10;22.10;99.90
14682;DHT22;7429;52.498;13.480;2023-07-29T13:02:13;22.50;99.90
14682;DHT22;7429;52.498;13.480;2023-07-29T13:05:17;22.90;99.90
14682;DHT22;7429;52.498;13.480;2023-07-29T13:08:22;23.20;99.90
14682;DHT22;7429;52.498;13.480;2023-07-29T13:11:25;23.50;99.90
14682;DHT22;7429;52.498;13.480;2023-07-29T13:14:30;23.70;99.90
14682;DHT22;7429;52.498;13.480;2023-07-29T13:17:33;23.80;99.90
14682;DHT22;7429;52.498;13.480;2023-07-29T13:20:37;23.70;99.90
14682;DHT22;7429;52.498;13.480;2023-07-29T13:23:43;23.90;99.90
14682;DHT22;7429;52.498;13.480;2023-07-29T13:26:46;23.80;99.90
14682;DHT22;7429;52.498;13.480;2023-07-29T13:29:50;23.60;99.90
14682;DHT22;7429;52.498;13.480;2023-07-29T13:32:54;23.40;99.90
14682;DHT22;7429;52.498;13.480;2023-07-29T13:35:57;23.10;99.90
14682;DHT22;7429;52.498;13.480;2023-07-29T13:39:00;23.00;99.90
14682;DHT22;7429;52.498;13.480;2023-07-29T13:42:03;23.00;99.90
14682;DHT22;7429;52.498;13.480;2023-07-29T13:45:09;23.20;99.90
14682;DHT22;7429;52.498;13.480;2023-07-29T13:48:12;23.50;99.90
14682;DHT22;7429;52.498;13.480;2023-07-29T13:51:17;23.80;99.90
14682;DHT22;7429;52.498;13.480;2023-07-29T13:54:22;23.80;99.90
14682;DHT22;7429;52.498;13.480;2023-07-29T13:57:25;23.80;99.90
14682;DHT22;7429;52.498;13.480;2023-07-29T14:00:29;23.80;99.90
14682;DHT22;7429;52.498;13.480;2023-07-29T14:03:32;24.20;99.90
14682;DHT22;7429;52.498;13.480;2023-07-29T14:06:35;24.40;99.90
14682;DHT22;7429;52.498;13.480;2023-07-29T14:09:42;24.30;99.90
14682;DHT22;7429;52.498;13.480;2023-07-29T14:12:45;24.40;99.90
14682;DHT22;7429;52.498;13.480;2023-07-29T14:15:50;24.60;99.90
14682;DHT22;7429;52.498;13.480;2023-07-29T14:18:53;24.50;99.90
14682;DHT22;7429;52.498;13.480;2023-07-29T14:21:56;24.70;99.90
14682;DHT22;7429;52.498;13.480;2023-07-29T14:24:59;24.80;99.90
14682;DHT22;7429;52.498;13.480;2023-07-29T14:28:02;24.70;99.90
14682;DHT22;7429;52.498;13.480;2023-07-29T14:31:07;24.40;99.90
14682;DHT22;7429;52.498;13.480;2023-07-29T14:34:10;24.40;99.90
14682;DHT22;7429;52.498;13.480;2023-07-29T14:37:13;24.60;99.90
14682;DHT22;7429;52.498;13.480;2023-07-29T14:40:17;24.80;99.90
14682;DHT22;7429;52.498;13.480;2023-07-29T14:43:21;24.70;99.90
14682;DHT22;7429;52.498;13.480;2023-07-29T14:46:25;24.40;99.90
14682;DHT22;7429;52.498;13.480;2023-07-29T14:49:28;24.00;99.90
14682;DHT22;7429;52.498;13.480;2023-07-29T14:52:37;23.80;99.90
14682;DHT22;7429;52.498;13.480;2023-07-29T14:55:45;23.70;99.90
14682;DHT22;7429;52.498;13.480;2023-07-29T14:58:48;23.50;99.90
14682;DHT22;7429;52.498;13.480;2023-07-29T15:01:53;23.50;99.90
14682;DHT22;7429;52.498;13.480;2023-07-29T15:04:56;23.60;99.90
14682;DHT22;7429;52.498;13.480;2023-07-29T15:07:59;23.60;99.90
14682;DHT22;7429;52.498;13.480;2023-07-29T15:11:03;23.60;99.90
14682;DHT22;7429;52.498;13.480;2023-07-29T15:14:06;23.60;99.90
14682;DHT22;7429;52.498;13.480;2023-07-29T15:17:10;23.50;99.90
14682;DHT22;7429;52.498;13.480;2023-07-29T15:20:14;23.50;99.90
14682;DHT22;7429;52.498;13.480;2023-07-29T15:23:17;23.50;99.90
14682;DHT22;7429;52.498;13.480;2023-07-29T15:26:20;23.50;99.90
14682;DHT22;7429;52.498;13.480;2023-07-29T15:29:25;23.50;99.90
14682;DHT22;7429;52.498;13.480;2023-07-29T15:32:29;23.50;99.90
14682;DHT22;7429;52.498;13.480;2023-07-29T15:35:36;23.40;99.90
14682;DHT22;7429;52.498;13.480;2023-07-29T15:38:40;23.30;99.90
14682;DHT22;7429;52.498;13.480;2023-07-29T15:41:43;23.20;99.90
14682;DHT22;7429;52.498;13.480;2023-07-29T15:44:46;23.00;99.90
14682;DHT22;7429;52.498;13.480;2023-07-29T15:47:51;22.50;99.90
14682;DHT22;7429;52.498;13.480;2023-07-29T15:50:54;21.40;99.90
14682;DHT22;7429;52.498;13.480;2023-07-29T15:53:57;20.40;99.90
14682;DHT22;7429;52.498;13.480;2023-07-29T15:57:01;19.80;99.90
14682;DHT22;7429;52.498;13.480;2023-07-29T16:00:05;19.70;99.90
14682;DHT22;7429;52.498;13.480;2023-07-29T16:03:14;19.70;99.90
14682;DHT22;7429;52.498;13.480;2023-07-29T16:06:18;19.60;99.90
14682;DHT22;7429;52.498;13.480;2023-07-29T16:09:21;19.50;99.90
14682;DHT22;7429;52.498;13.480;2023-07-29T16:12:25;19.40;99.90
14682;DHT22;7429;52.498;13.480;2023-07-29T16:15:28;19.50;99.90
14682;DHT22;7429;52.498;13.480;2023-07-29T16:18:32;19.80;99.90
14682;DHT22;7429;52.498;13.480;2023-07-29T16:21:35;20.00;99.90
14682;DHT22;7429;52.498;13.480;2023-07-29T16:24:38;20.20;99.90
14682;DHT22;7429;52.498;13.480;2023-07-29T16:27:41;20.40;99.90
14682;DHT22;7429;52.498;13.480;2023-07-29T16:30:44;20.50;99.90
14682;DHT22;7429;52.498;13.480;2023-07-29T16:33:49;20.40;99.90
14682;DHT22;7429;52.498;13.480;2023-07-29T16:36:52;20.50;99.90
14682;DHT22;7429;52.498;13.480;2023-07-29T16:39:57;20.50;99.90
14682;DHT22;7429;52.498;13.480;2023-07-29T16:43:00;20.60;99.90
14682;DHT22;7429;52.498;13.480;2023-07-29T16:46:03;20.70;99.90
14682;DHT22;7429;52.498;13.480;2023-07-29T16:49:08;20.80;99.90
14682;DHT22;7429;52.498;13.480;2023-07-29T16:52:22;20.80;99.90
14682;DHT22;7429;52.498;13.480;2023-07-29T16:55:25;20.90;99.90
14682;DHT22;7429;52.498;13.480;2023-07-29T16:58:31;20.90;99.90
14682;DHT22;7429;52.498;13.480;2023-07-29T17:01:34;20.90;99.90
14682;DHT22;7429;52.498;13.480;2023-07-29T17:04:38;20.90;99.90
14682;DHT22;7429;52.498;13.480;2023-07-29T17:07:41;20.90;99.90
14682;DHT22;7429;52.498;13.480;2023-07-29T17:10:44;20.90;99.90
14682;DHT22;7429;52.498;13.480;2023-07-29T17:13:47;21.00;99.90
14682;DHT22;7429;52.498;13.480;2023-07-29T17:16:51;21.10;99.90
14682;DHT22;7429;52.498;13.480;2023-07-29T17:19:57;21.10;99.90
14682;DHT22;7429;52.498;13.480;2023-07-29T17:23:00;21.10;99.90
14682;DHT22;7429;52.498;13.480;2023-07-29T17:26:03;21.20;99.90
14682;DHT22;7429;52.498;13.480;2023-07-29T17:29:06;21.20;99.90
14682;DHT22;7429;52.498;13.480;2023-07-29T17:32:09;21.30;99.90
14682;DHT22;7429;52.498;13.480;2023-07-29T17:35:14;21.30;99.90
14682;DHT22;7429;52.498;13.480;2023-07-29T17:38:17;21.40;99.90
14682;DHT22;7429;52.498;13.480;2023-07-29T17:41:20;21.50;99.90
14682;DHT22;7429;52.498;13.480;2023-07-29T17:44:23;21.40;99.90
14682;DHT22;7429;52.498;13.480;2023-07-29T17:47:26;21.50;99.90
14682;DHT22;7429;52.498;13.480;2023-07-29T17:50:30;21.60;99.90
14682;DHT22;7429;52.498;13.480;2023-07-29T17:53:36;21.60;99.90
14682;DHT22;7429;52.498;13.480;2023-07-29T17:56:39;21.60;99.90
14682;DHT22;7429;52.498;13.480;2023-07-29T17:59:42;21.60;99.90
14682;DHT22;7429;52.498;13.480;2023-07-29T18:02:46;21.60;99.90
14682;DHT22;7429;52.498;13.480;2023-07-29T18:05:52;21.60;99.90
14682;DHT22;7429;52.498;13.480;2023-07-29T18:08:55;21.50;99.90
14682;DHT22;7429;52.498;13.480;2023-07-29T18:11:58;21.40;99.90
14682;DHT22;7429;52.498;13.480;2023-07-29T18:15:05;21.40;99.90
14682;DHT22;7429;52.498;13.480;2023-07-29T18:18:09;21.30;99.90
14682;DHT22;7429;52.498;13.480;2023-07-29T18:21:13;21.20;99.90
14682;DHT22;7429;52.498;13.480;2023-07-29T18:24:16;21.20;99.90
14682;DHT22;7429;52.498;13.480;2023-07-29T18:27:20;21.10;99.90
14682;DHT22;7429;52.498;13.480;2023-07-29T18:30:23;21.00;99.90
14682;DHT22;7429;52.498;13.480;2023-07-29T18:33:26;21.00;99.90
14682;DHT22;7429;52.498;13.480;2023-07-29T18:36:30;20.90;99.90
14682;DHT22;7429;52.498;13.480;2023-07-29T18:39:36;20.80;99.90
14682;DHT22;7429;52.498;13.480;2023-07-29T18:42:39;20.80;99.90
14682;DHT22;7429;52.498;13.480;2023-07-29T18:45:42;20.70;99.90
14682;DHT22;7429;52.498;13.480;2023-07-29T18:48:45;20.70;99.90
14682;DHT22;7429;52.498;13.480;2023-07-29T18:51:49;20.70;99.90
14682;DHT22;7429;52.498;13.480;2023-07-29T18:54:53;20.60;99.90
14682;DHT22;7429;52.498;13.480;2023-07-29T18:57:57;20.50;99.90
14682;DHT22;7429;52.498;13.480;2023-07-29T19:01:00;20.50;99.90
14682;DHT22;7429;52.498;13.480;2023-07-29T19:04:03;20.40;99.90
14682;DHT22;7429;52.498;13.480;2023-07-29T19:07:08;20.40;99.90
14682;DHT22;7429;52.498;13.480;2023-07-29T19:10:11;20.30;99.90
14682;DHT22;7429;52.498;13.480;2023-07-29T19:13:16;20.30;99.90
14682;DHT22;7429;52.498;13.480;2023-07-29T19:16:19;20.30;99.90
14682;DHT22;7429;52.498;13.480;2023-07-29T19:19:22;20.30;99.90
14682;DHT22;7429;52.498;13.480;2023-07-29T19:22:27;20.30;99.90
14682;DHT22;7429;52.498;13.480;2023-07-29T19:25:30;20.20;99.90
14682;DHT22;7429;52.498;13.480;2023-07-29T19:28:33;20.20;99.90